createdAt,value
2023-01-27T00:00:01.809Z,24.40
2023-01-27T00:05:05.074Z,24.30
2023-01-27T00:10:10.706Z,24.30
2023-01-27T00:15:16.234Z,24.30
2023-01-27T00:20:40.859Z,24.20
2023-01-27T00:25:43.657Z,24.20
2023-01-27T00:30:47.841Z,24.10
2023-01-27T00:35:50.641Z,24.00
2023-01-27T00:41:07.392Z,24.00
2023-01-27T00:46:11.574Z,23.90
2023-01-27T00:51:14.584Z,23.80
2023-01-27T00:56:17.637Z,23.80
2023-01-27T01:01:22.060Z,23.70
2023-01-27T01:06:25.175Z,23.60
2023-01-27T01:11:28.287Z,23.60
2023-01-27T01:16:32.492Z,23.50
2023-01-27T01:21:35.316Z,23.40
2023-01-27T01:26:38.167Z,23.40
2023-01-27T01:31:42.644Z,23.30
2023-01-27T01:36:45.559Z,23.30
2023-01-27T01:41:48.425Z,23.20
2023-01-27T01:46:52.777Z,23.20
2023-01-27T01:51:58.614Z,23.20
2023-01-27T01:57:05.869Z,23.10
2023-01-27T02:02:13.979Z,23.10
2023-01-27T02:07:21.871Z,23.00
2023-01-27T02:12:24.804Z,22.90
2023-01-27T02:17:29.731Z,22.80
2023-01-27T02:22:40.528Z,22.70
2023-01-27T02:27:44.875Z,22.70
2023-01-27T02:32:47.779Z,22.60
2023-01-27T02:37:52.206Z,22.60
2023-01-27T02:42:58.100Z,22.50
2023-01-27T02:48:00.976Z,22.50
2023-01-27T02:53:03.800Z,22.40
2023-01-27T02:58:07.960Z,22.50
2023-01-27T03:03:11.010Z,22.40
2023-01-27T03:08:13.815Z,22.30
2023-01-27T03:13:18.049Z,22.20
2023-01-27T03:18:22.420Z,22.20
2023-01-27T03:23:25.262Z,22.20
2023-01-27T03:28:29.622Z,22.10
2023-01-27T03:33:32.818Z,22.10
2023-01-27T03:38:53.129Z,22.00
2023-01-27T03:44:14.918Z,22.00
2023-01-27T03:49:17.769Z,21.90
2023-01-27T03:54:20.619Z,21.90
2023-01-27T03:59:25.077Z,21.90
2023-01-27T04:04:45.589Z,21.90
2023-01-27T04:09:48.392Z,21.90
2023-01-27T04:14:52.867Z,21.80
2023-01-27T04:19:55.653Z,21.80
2023-01-27T04:24:58.506Z,21.70
2023-01-27T04:30:02.722Z,21.70
2023-01-27T04:35:06.148Z,21.70
2023-01-27T04:40:10.655Z,21.60
2023-01-27T04:45:15.851Z,21.60
2023-01-27T04:50:19.028Z,21.50
2023-01-27T04:55:21.902Z,21.50
2023-01-27T05:00:26.309Z,21.40
2023-01-27T05:05:29.145Z,21.40
2023-01-27T05:10:32.046Z,21.30
2023-01-27T05:15:36.250Z,21.30
2023-01-27T05:20:39.164Z,21.30
2023-01-27T05:25:46.006Z,21.30
2023-01-27T05:30:50.250Z,21.40
2023-01-27T05:35:53.130Z,21.50
2023-01-27T05:40:57.864Z,21.60
2023-01-27T05:46:06.902Z,21.60
2023-01-27T05:51:10.622Z,21.60
2023-01-27T05:56:16.120Z,21.60
2023-01-27T06:01:23.396Z,21.60
2023-01-27T06:06:28.027Z,21.60
2023-01-27T06:11:30.837Z,21.50
2023-01-27T06:16:35.102Z,21.50
2023-01-27T06:21:37.950Z,21.40
2023-01-27T06:26:40.860Z,21.40
2023-01-27T06:31:45.076Z,21.50
2023-01-27T06:36:48.674Z,21.50
2023-01-27T06:41:51.578Z,21.50
2023-01-27T06:46:55.761Z,21.50
2023-01-27T06:51:58.615Z,21.50
2023-01-27T06:57:01.622Z,21.50
2023-01-27T07:02:05.850Z,21.40
2023-01-27T07:07:08.691Z,21.40
2023-01-27T07:12:11.623Z,21.30
2023-01-27T07:17:15.829Z,21.30
2023-01-27T07:22:18.724Z,21.30
2023-01-27T07:27:21.610Z,21.30
2023-01-27T07:32:27.373Z,21.20
2023-01-27T07:37:31.415Z,21.20
2023-01-27T07:42:34.264Z,21.20
2023-01-27T07:47:38.863Z,21.20
2023-01-27T07:52:41.765Z,21.20
2023-01-27T07:57:44.603Z,21.20
2023-01-27T08:02:51.538Z,21.10
2023-01-27T08:07:58.406Z,21.10
2023-01-27T08:13:01.833Z,21.00
2023-01-27T08:18:06.164Z,21.00
2023-01-27T08:23:09.026Z,20.90
2023-01-27T08:28:11.821Z,21.00
2023-01-27T08:33:15.975Z,21.10
2023-01-27T08:38:20.096Z,21.10
2023-01-27T08:43:22.971Z,21.20
2023-01-27T08:48:27.666Z,21.20
2023-01-27T08:53:31.227Z,21.20
2023-01-27T08:58:34.314Z,21.20
2023-01-27T09:03:38.674Z,21.20
2023-01-27T09:08:42.363Z,21.30
2023-01-27T09:13:45.260Z,21.20
2023-01-27T09:18:49.405Z,21.20
2023-01-27T09:23:53.131Z,21.20
2023-01-27T09:28:55.987Z,21.20
2023-01-27T09:34:00.225Z,21.20
2023-01-27T09:39:05.267Z,21.20
2023-01-27T09:44:38.137Z,21.30
2023-01-27T09:49:55.659Z,21.40
2023-01-27T09:55:09.741Z,21.30
2023-01-27T10:00:27.556Z,21.30
2023-01-27T10:05:46.926Z,21.30
2023-01-27T10:11:02.204Z,21.20
2023-01-27T10:16:31.206Z,21.20
2023-01-27T10:21:44.265Z,21.10
2023-01-27T10:26:51.804Z,21.00
2023-01-27T10:31:59.018Z,21.00
2023-01-27T10:37:17.325Z,21.00
2023-01-27T10:42:29.372Z,21.00
2023-01-27T10:47:47.869Z,21.10
2023-01-27T10:52:59.523Z,21.10
2023-01-27T10:58:08.088Z,21.00
2023-01-27T11:03:21.461Z,20.90
2023-01-27T11:08:29.244Z,20.90
2023-01-27T11:13:33.351Z,20.90
2023-01-27T11:18:38.643Z,20.90
2023-01-27T11:23:45.879Z,21.00
2023-01-27T11:28:56.771Z,21.00
2023-01-27T11:34:09.095Z,21.00
2023-01-27T11:39:15.470Z,21.00
2023-01-27T11:44:21.886Z,21.00
2023-01-27T11:49:29.371Z,21.00
2023-01-27T11:54:38.668Z,21.00
2023-01-27T11:59:43.530Z,20.90
2023-01-27T12:04:53.910Z,20.90
2023-01-27T12:09:58.101Z,20.90
2023-01-27T12:15:03.089Z,20.90
2023-01-27T12:20:19.374Z,20.80
2023-01-27T12:25:27.862Z,20.70
2023-01-27T12:30:33.544Z,20.70
2023-01-27T12:35:37.664Z,20.70
2023-01-27T12:40:45.639Z,20.80
2023-01-27T12:46:05.341Z,20.90
2023-01-27T12:51:16.038Z,20.90
2023-01-27T12:56:23.175Z,20.90
2023-01-27T13:01:30.137Z,20.90
2023-01-27T13:06:41.881Z,20.90
2023-01-27T13:11:46.469Z,20.90
2023-01-27T13:16:53.674Z,20.90
2023-01-27T13:21:57.023Z,21.00
2023-01-27T13:27:03.394Z,21.10
2023-01-27T13:32:10.466Z,21.20
2023-01-27T13:37:17.192Z,21.20
2023-01-27T13:42:27.737Z,21.30
2023-01-27T13:47:35.734Z,21.20
2023-01-27T13:52:38.585Z,21.20
2023-01-27T13:57:54.021Z,21.30
2023-01-27T14:03:17.909Z,21.40
2023-01-27T14:08:45.728Z,21.40
2023-01-27T14:14:21.269Z,21.50
2023-01-27T14:19:37.895Z,21.60
2023-01-27T14:24:46.121Z,21.60
2023-01-27T14:29:57.723Z,21.60
2023-01-27T14:35:23.685Z,21.60
2023-01-27T14:40:31.360Z,21.50
2023-01-27T14:45:38.126Z,21.60
2023-01-27T14:50:47.465Z,21.70
2023-01-27T14:55:57.890Z,21.80
2023-01-27T15:01:15.668Z,21.80
2023-01-27T15:06:26.078Z,21.90
2023-01-27T15:11:45.309Z,22.00
2023-01-27T15:17:02.855Z,21.90
2023-01-27T15:22:35.454Z,22.00
2023-01-27T15:27:38.579Z,22.00
2023-01-27T15:32:42.819Z,21.90
2023-01-27T15:38:01.917Z,21.90
2023-01-27T15:43:06.059Z,22.00
2023-01-27T15:48:15.017Z,22.10
2023-01-27T15:53:25.455Z,22.10
2023-01-27T15:58:34.485Z,22.10
2023-01-27T16:03:43.734Z,22.20
2023-01-27T16:08:52.133Z,22.20
2023-01-27T16:14:33.364Z,22.20
2023-01-27T16:19:44.256Z,22.20
2023-01-27T16:24:51.279Z,22.30
2023-01-27T16:29:59.265Z,22.50
2023-01-27T16:35:06.663Z,22.80
2023-01-27T16:40:17.915Z,23.00
2023-01-27T16:45:23.263Z,23.30
2023-01-27T16:50:35.847Z,23.40
2023-01-27T16:55:39.147Z,23.60
2023-01-27T17:00:42.332Z,23.70
2023-01-27T17:05:52.907Z,23.80
2023-01-27T17:10:57.411Z,23.80
2023-01-27T17:16:02.605Z,23.90
2023-01-27T17:21:07.279Z,24.00
2023-01-27T17:26:15.636Z,24.20
2023-01-27T17:31:22.318Z,24.40
2023-01-27T17:36:26.646Z,24.60
2023-01-27T17:41:37.237Z,24.80
2023-01-27T17:46:40.829Z,24.90
2023-01-27T17:51:48.138Z,25.10
2023-01-27T17:56:57.186Z,25.10
2023-01-27T18:02:05.424Z,25.10
2023-01-27T18:07:11.300Z,25.20
2023-01-27T18:12:30.685Z,25.30
2023-01-27T18:17:33.544Z,25.40
2023-01-27T18:22:46.201Z,25.60
2023-01-27T18:27:53.301Z,25.70
2023-01-27T18:33:03.870Z,25.80
2023-01-27T18:38:23.516Z,25.80
2023-01-27T18:43:26.384Z,25.70
2023-01-27T18:48:32.469Z,25.70
2023-01-27T18:53:36.948Z,25.60
2023-01-27T18:58:40.110Z,25.60
2023-01-27T19:03:43.051Z,25.50
2023-01-27T19:08:48.845Z,25.40
2023-01-27T19:13:51.717Z,25.40
2023-01-27T19:18:55.315Z,25.40
2023-01-27T19:23:59.535Z,25.50
2023-01-27T19:29:03.507Z,25.50
2023-01-27T19:34:06.831Z,25.60
2023-01-27T19:39:14.768Z,25.50
2023-01-27T19:44:17.608Z,25.50
2023-01-27T19:49:21.285Z,25.50
2023-01-27T19:54:25.612Z,25.50
2023-01-27T19:59:28.493Z,25.50
2023-01-27T20:04:31.530Z,25.50
2023-01-27T20:09:35.810Z,25.50
2023-01-27T20:14:38.629Z,25.50
2023-01-27T20:19:42.299Z,25.50
2023-01-27T20:24:46.486Z,25.60
2023-01-27T20:29:49.368Z,25.70
2023-01-27T20:34:52.800Z,25.70
2023-01-27T20:39:56.988Z,25.60
2023-01-27T20:44:59.878Z,25.60
2023-01-27T20:50:02.757Z,25.60
2023-01-27T20:55:09.539Z,25.50
2023-01-27T21:00:17.601Z,25.50
2023-01-27T21:05:20.497Z,25.50
2023-01-27T21:10:24.967Z,25.40
2023-01-27T21:15:27.791Z,25.50
2023-01-27T21:20:30.703Z,25.60
2023-01-27T21:25:37.337Z,25.70
2023-01-27T21:30:40.206Z,25.80
2023-01-27T21:35:43.153Z,25.90
2023-01-27T21:40:47.418Z,25.90
2023-01-27T21:45:59.923Z,25.90
2023-01-27T21:51:02.965Z,25.90
2023-01-27T21:56:08.919Z,25.90
2023-01-27T22:01:12.365Z,25.80
2023-01-27T22:06:15.776Z,25.70
2023-01-27T22:11:20.796Z,25.70
2023-01-27T22:16:25.950Z,25.60
2023-01-27T22:21:28.866Z,25.60
2023-01-27T22:26:35.025Z,25.40
2023-01-27T22:31:40.169Z,25.20
2023-01-27T22:36:43.086Z,25.10
2023-01-27T22:41:47.602Z,25.00
2023-01-27T22:46:50.583Z,24.90
2023-01-27T22:51:53.397Z,24.80
2023-01-27T22:56:59.020Z,24.70
2023-01-27T23:02:03.727Z,24.60
2023-01-27T23:07:06.600Z,24.60
2023-01-27T23:12:10.781Z,24.40
2023-01-27T23:17:13.592Z,24.40
2023-01-27T23:22:17.538Z,24.20
2023-01-27T23:27:21.934Z,24.20
2023-01-27T23:32:24.926Z,24.00
2023-01-27T23:37:27.904Z,24.00
2023-01-27T23:42:32.103Z,23.80
2023-01-27T23:47:35.178Z,23.80
2023-01-27T23:52:38.082Z,23.70
2023-01-27T23:57:42.366Z,23.60
